Time;durP1;ratioP1;P1;durP2;ratioP2;P2;SDS_P1;SDS_P2;PMS_P1;PMS_P2;Temp;Humidity;BMP_temperature;BMP_pressure;BME280_temperature;BME280_humidity;BME280_pressure;Samples;Min_cycle;Max_cycle;Signal;HPM_P1;HPM_P2
2021/03/18 00:00:39;;;;;;;;;;;;;;;8.22;41.66;100879.84;5028448;28;20488;-84
2021/03/18 00:03:25;;;;;;;;;;;;;;;8.27;39.29;100892.50;5023929;28;20381;-83
2021/03/18 00:06:11;;;;;;;;;;;;;;;8.21;42.53;100889.06;5028389;28;19925;-82
2021/03/18 00:08:55;;;;;;;;;;;;;;;8.27;41.20;100890.59;5030580;28;19918;-83
2021/03/18 00:11:41;;;;;;;;;;;;;;;8.12;42.67;100899.75;5024595;28;19976;-84
2021/03/18 00:14:25;;;;;;;;;;;;;;;7.91;39.57;100889.50;5029641;28;19917;-82
2021/03/18 00:17:10;;;;;;;;;;;;;;;7.77;40.10;100891.34;5013364;28;19929;-82
2021/03/18 00:19:55;;;;;;;;;;;;;;;7.64;40.67;100903.69;5029831;28;19921;-82
2021/03/18 00:22:41;;;;;;;;;;;;;;;7.41;38.10;100893.72;5019795;28;20104;-82
2021/03/18 00:25:25;;;;;;;;;;;;;;;6.50;39.08;100892.78;5032518;28;19917;-82
2021/03/18 00:28:10;;;;;;;;;;;;;;;6.44;41.41;100893.91;5029584;28;19921;-81
2021/03/18 00:30:55;;;;;;;;;;;;;;;6.19;40.28;100899.50;5035455;28;19917;-81
2021/03/18 00:33:39;;;;;;;;;;;;;;;6.38;41.82;100903.13;5038567;28;19917;-81
2021/03/18 00:36:24;;;;;;;;;;;;;;;6.37;41.18;100901.53;5031685;28;19921;-83
2021/03/18 00:39:11;;;;;;;;;;;;;;;6.15;40.21;100891.16;5030398;28;19918;-81
2021/03/18 00:41:56;;;;;;;;;;;;;;;6.13;40.03;100893.34;5018186;28;20332;-82
2021/03/18 00:44:41;;;;;;;;;;;;;;;6.04;39.61;100896.91;5031771;28;19917;-80
2021/03/18 00:47:26;;;;;;;;;;;;;;;6.50;41.51;100897.38;5018256;28;19921;-82
2021/03/18 00:50:12;;;;;;;;;;;;;;;6.28;40.17;100895.13;5024138;28;19917;-82
2021/03/18 00:52:57;;;;;;;;;;;;;;;6.50;41.54;100895.47;5023623;28;19921;-82
2021/03/18 00:55:42;;;;;;;;;;;;;;;6.28;40.01;100890.53;5038763;28;19917;-80
2021/03/18 00:58:28;;;;;;;;;;;;;;;6.68;42.32;100891.25;5030692;28;20397;-82
2021/03/18 01:01:14;;;;;;;;;;;;;;;6.76;38.67;100894.13;5036311;28;19921;-82
2021/03/18 01:03:58;;;;;;;;;;;;;;;6.85;38.47;100897.84;5048518;28;19917;-83
2021/03/18 01:06:44;;;;;;;;;;;;;;;6.48;37.88;100892.25;5027647;28;19917;-81
2021/03/18 01:09:29;;;;;;;;;;;;;;;6.77;37.19;100890.34;5038183;28;20336;-82
2021/03/18 01:12:14;;;;;;;;;;;;;;;6.66;37.51;100896.94;5015535;28;19917;-82
2021/03/18 01:14:58;;;;;;;;;;;;;;;6.64;37.80;100906.44;5022687;28;19917;-81
2021/03/18 01:17:42;;;;;;;;;;;;;;;6.63;37.27;100896.72;5039039;28;19921;-82
2021/03/18 01:20:27;;;;;;;;;;;;;;;6.98;36.48;100896.34;5022994;28;19917;-83
2021/03/18 01:23:12;;;;;;;;;;;;;;;7.06;37.89;100892.22;5027118;28;19918;-83
2021/03/18 01:25:56;;;;;;;;;;;;;;;7.05;39.30;100891.44;5032255;28;19926;-82
2021/03/18 01:28:42;;;;;;;;;;;;;;;7.19;40.41;100902.34;5018957;28;19917;-83
2021/03/18 01:31:27;;;;;;;;;;;;;;;7.19;36.60;100902.34;5025896;28;19921;-82
2021/03/18 01:34:11;;;;;;;;;;;;;;;7.23;37.89;100896.06;5025531;28;19917;-83
2021/03/18 01:36:56;;;;;;;;;;;;;;;7.08;40.44;100904.34;5032985;28;19933;-82
2021/03/18 01:39:41;;;;;;;;;;;;;;;7.08;37.93;100898.13;5014822;28;19922;-83
2021/03/18 01:42:25;;;;;;;;;;;;;;;7.08;41.52;100893.53;5018149;28;19917;-81
2021/03/18 01:45:10;;;;;;;;;;;;;;;7.16;38.78;100892.13;5039115;28;19945;-82
2021/03/18 01:47:56;;;;;;;;;;;;;;;7.19;37.02;100892.34;5028796;28;19918;-83
2021/03/18 01:50:40;;;;;;;;;;;;;;;7.32;36.93;100888.94;5037973;28;19917;-83
2021/03/18 01:53:25;;;;;;;;;;;;;;;7.38;37.35;100881.56;5024813;28;19918;-82
2021/03/18 01:56:10;;;;;;;;;;;;;;;7.09;38.13;100875.41;5038460;28;19921;-80
2021/03/18 01:58:55;;;;;;;;;;;;;;;6.90;37.76;100866.44;5040741;28;19921;-82
2021/03/18 02:01:40;;;;;;;;;;;;;;;6.95;38.63;100871.81;5023419;28;19917;-83
2021/03/18 02:04:26;;;;;;;;;;;;;;;7.02;39.11;100869.53;5036556;28;20304;-80
2021/03/18 02:07:11;;;;;;;;;;;;;;;6.53;38.72;100862.50;5040669;28;20292;-83
2021/03/18 02:09:55;;;;;;;;;;;;;;;6.94;39.92;100864.78;5022356;28;19917;-82
2021/03/18 02:12:39;;;;;;;;;;;;;;;6.67;41.07;100873.44;5021175;28;20324;-83
2021/03/18 02:15:25;;;;;;;;;;;;;;;6.44;42.53;100878.50;5026569;28;19917;-81
2021/03/18 02:18:13;;;;;;;;;;;;;;;6.53;43.01;100883.28;5041731;28;19925;-83
2021/03/18 02:21:17;;;;;;;;;;;;;;;6.34;44.14;100877.78;5025944;28;19918;-83
2021/03/18 02:24:07;;;;;;;;;;;;;;;6.29;45.67;100883.22;5035713;28;20292;-82
2021/03/18 02:26:55;;;;;;;;;;;;;;;6.32;47.60;100871.84;5041924;28;19916;-83
2021/03/18 02:29:58;;;;;;;;;;;;;;;6.06;49.72;100882.03;5033503;28;19918;-85
2021/03/18 02:32:55;;;;;;;;;;;;;;;6.00;51.44;100883.97;5033549;28;19917;-82
2021/03/18 02:35:45;;;;;;;;;;;;;;;6.01;53.45;100884.78;5034132;28;19918;-82
2021/03/18 02:38:33;;;;;;;;;;;;;;;5.95;53.63;100884.00;5036797;28;19921;-81
2021/03/18 02:41:18;;;;;;;;;;;;;;;6.03;53.54;100892.59;5034960;28;19917;-82
2021/03/18 02:44:03;;;;;;;;;;;;;;;5.96;54.55;100891.03;5041019;28;20296;-80
2021/03/18 02:47:05;;;;;;;;;;;;;;;6.12;53.44;100888.22;5035708;28;20309;-82
2021/03/18 02:49:50;;;;;;;;;;;;;;;5.97;54.38;100881.03;5042195;28;20304;-83
2021/03/18 02:52:35;;;;;;;;;;;;;;;5.82;55.29;100892.69;5050473;28;19917;-83
2021/03/18 02:55:20;;;;;;;;;;;;;;;5.87;55.48;100887.31;5043100;28;19917;-82
2021/03/18 02:58:06;;;;;;;;;;;;;;;5.86;56.21;100885.66;5042330;28;20373;-84
2021/03/18 03:00:52;;;;;;;;;;;;;;;5.83;57.15;100893.50;5025297;28;19917;-82
2021/03/18 03:03:38;;;;;;;;;;;;;;;5.98;56.21;100883.47;5040833;28;19917;-80
2021/03/18 03:06:23;;;;;;;;;;;;;;;6.20;56.45;100884.91;5038596;28;19917;-82
2021/03/18 03:09:09;;;;;;;;;;;;;;;6.34;59.43;100897.50;5035956;28;19917;-80
2021/03/18 03:11:54;;;;;;;;;;;;;;;6.37;59.36;100902.31;5014782;28;19917;-81
2021/03/18 03:14:40;;;;;;;;;;;;;;;6.31;56.63;100897.25;5020536;28;19918;-81
2021/03/18 03:17:26;;;;;;;;;;;;;;;6.29;54.43;100896.72;5020443;28;19921;-81
2021/03/18 03:20:12;;;;;;;;;;;;;;;6.15;55.34;100898.44;5021392;28;19917;-80
2021/03/18 03:22:59;;;;;;;;;;;;;;;5.66;57.17;100901.16;5038388;28;19921;-82
2021/03/18 03:25:43;;;;;;;;;;;;;;;5.71;59.04;100904.63;5040436;28;19917;-81
2021/03/18 03:28:29;;;;;;;;;;;;;;;5.97;56.20;100892.63;5031977;28;19925;-81
2021/03/18 03:31:14;;;;;;;;;;;;;;;5.94;56.13;100897.78;5018490;28;19917;-81
2021/03/18 03:33:59;;;;;;;;;;;;;;;6.05;56.01;100895.81;5016881;28;19939;-81
2021/03/18 03:36:44;;;;;;;;;;;;;;;6.04;58.03;100897.72;5032081;28;20565;-82
2021/03/18 03:39:29;;;;;;;;;;;;;;;6.13;55.06;100895.22;5038520;28;19917;-82
2021/03/18 03:42:14;;;;;;;;;;;;;;;5.94;55.50;100887.00;5024975;28;19925;-82
2021/03/18 03:44:58;;;;;;;;;;;;;;;5.48;57.58;100889.94;5014797;28;19925;-82
2021/03/18 03:47:43;;;;;;;;;;;;;;;5.57;56.94;100899.03;5020994;28;19918;-81
2021/03/18 03:50:28;;;;;;;;;;;;;;;5.49;57.50;100890.69;5019929;28;19917;-79
2021/03/18 03:53:22;;;;;;;;;;;;;;;5.48;57.78;100891.81;5021123;28;19917;-81
2021/03/18 03:56:16;;;;;;;;;;;;;;;5.65;57.15;100888.75;5034203;28;19917;-83
2021/03/18 03:59:16;;;;;;;;;;;;;;;5.32;58.04;100888.38;5026993;28;20296;-81
2021/03/18 04:02:01;;;;;;;;;;;;;;;5.55;57.82;100889.59;5015491;28;19917;-82
2021/03/18 04:04:47;;;;;;;;;;;;;;;5.82;56.82;100895.41;5019437;28;19925;-82
2021/03/18 04:07:35;;;;;;;;;;;;;;;5.84;55.19;100893.22;5019896;28;19917;-80
2021/03/18 04:10:24;;;;;;;;;;;;;;;5.97;54.90;100892.63;5021309;28;19905;-80
2021/03/18 04:13:11;;;;;;;;;;;;;;;5.76;54.85;100893.81;5040626;28;19917;-82
2021/03/18 04:15:57;;;;;;;;;;;;;;;5.84;55.36;100887.81;5056126;28;20288;-82
2021/03/18 04:18:42;;;;;;;;;;;;;;;5.66;55.50;100896.56;5039528;28;19921;-82
2021/03/18 04:21:29;;;;;;;;;;;;;;;5.65;55.19;100894.13;5036472;28;19921;-82
2021/03/18 04:24:14;;;;;;;;;;;;;;;5.49;56.40;100888.00;5039452;28;19917;-82
2021/03/18 04:27:00;;;;;;;;;;;;;;;5.59;57.36;100883.38;5039724;28;19917;-82
2021/03/18 04:29:45;;;;;;;;;;;;;;;5.19;58.52;100888.94;5037504;28;19917;-83
2021/03/18 04:32:29;;;;;;;;;;;;;;;4.71;60.26;100882.34;5018491;28;20321;-81
2021/03/18 04:35:16;;;;;;;;;;;;;;;4.89;60.15;100887.16;5022327;28;19917;-81
2021/03/18 04:38:01;;;;;;;;;;;;;;;4.59;61.42;100876.44;5019669;28;19921;-82
2021/03/18 04:40:47;;;;;;;;;;;;;;;5.03;61.26;100882.78;5016489;28;19917;-82
2021/03/18 04:43:32;;;;;;;;;;;;;;;5.05;60.23;100888.72;5019189;28;19925;-82
2021/03/18 04:46:17;;;;;;;;;;;;;;;4.76;61.81;100885.03;5026007;28;20409;-82
2021/03/18 04:49:02;;;;;;;;;;;;;;;5.10;60.98;100883.31;5039412;28;19917;-82
2021/03/18 04:51:47;;;;;;;;;;;;;;;5.29;58.96;100890.78;5035433;28;19917;-82
2021/03/18 04:54:32;;;;;;;;;;;;;;;4.91;60.77;100881.50;5039110;28;19917;-82
2021/03/18 04:57:19;;;;;;;;;;;;;;;5.19;61.50;100880.84;5039320;28;19921;-82
2021/03/18 05:00:05;;;;;;;;;;;;;;;5.18;60.63;100876.56;5013881;28;19917;-82
2021/03/18 05:02:50;;;;;;;;;;;;;;;4.97;60.99;100873.13;5032255;28;19917;-82
2021/03/18 05:05:35;;;;;;;;;;;;;;;4.99;61.44;100876.34;5038007;28;19917;-82
2021/03/18 05:08:22;;;;;;;;;;;;;;;5.26;59.78;100877.88;5039078;28;19917;-82
2021/03/18 05:11:08;;;;;;;;;;;;;;;4.95;60.69;100888.75;5031895;28;19940;-82
2021/03/18 05:13:54;;;;;;;;;;;;;;;5.20;59.51;100881.66;5035663;28;19917;-83
2021/03/18 05:16:39;;;;;;;;;;;;;;;5.31;63.70;100889.44;5035529;28;19917;-83
2021/03/18 05:19:24;;;;;;;;;;;;;;;5.09;60.83;100891.66;5035893;28;19921;-81
2021/03/18 05:22:09;;;;;;;;;;;;;;;5.04;58.79;100880.91;5047212;22;19917;-86
2021/03/18 05:24:54;;;;;;;;;;;;;;;4.93;59.17;100890.91;5058907;28;19924;-85
2021/03/18 05:27:39;;;;;;;;;;;;;;;4.49;61.42;100887.22;5068397;28;19921;-85
2021/03/18 05:30:25;;;;;;;;;;;;;;;4.20;62.28;100895.84;5067744;28;20397;-85
2021/03/18 05:33:10;;;;;;;;;;;;;;;4.19;61.67;100896.09;5044617;28;20320;-85
2021/03/18 05:35:54;;;;;;;;;;;;;;;4.42;64.09;100886.69;5058617;28;19917;-85
2021/03/18 05:38:39;;;;;;;;;;;;;;;4.75;61.52;100891.50;5067183;28;19925;-84
2021/03/18 05:41:23;;;;;;;;;;;;;;;4.60;59.13;100891.50;5060563;28;19917;-85
2021/03/18 05:44:09;;;;;;;;;;;;;;;4.32;61.20;100904.44;5044709;28;19920;-84
2021/03/18 05:46:55;;;;;;;;;;;;;;;4.19;60.44;100904.16;5060330;28;19917;-84
2021/03/18 05:49:42;;;;;;;;;;;;;;;4.37;61.03;100906.31;5067255;28;19920;-84
2021/03/18 05:52:27;;;;;;;;;;;;;;;4.79;59.02;100900.63;5056473;28;19917;-83
2021/03/18 05:55:13;;;;;;;;;;;;;;;7.32;51.79;100909.75;5061206;28;20311;-84
2021/03/18 05:57:58;;;;;;;;;;;;;;;8.70;46.62;100912.13;5049975;28;19921;-83
2021/03/18 06:00:43;;;;;;;;;;;;;;;9.81;44.32;100909.91;5048404;28;19917;-83
2021/03/18 06:03:27;;;;;;;;;;;;;;;9.71;43.10;100919.09;5059200;28;20381;-84
2021/03/18 06:06:12;;;;;;;;;;;;;;;7.40;50.28;100919.97;5065468;28;19917;-84
2021/03/18 06:08:57;;;;;;;;;;;;;;;7.59;48.56;100928.91;5061774;28;19917;-84
2021/03/18 06:11:42;;;;;;;;;;;;;;;7.44;50.16;100926.41;5059223;28;20303;-84
2021/03/18 06:14:27;;;;;;;;;;;;;;;8.63;46.72;100917.94;5040458;28;20316;-84
2021/03/18 06:17:11;;;;;;;;;;;;;;;9.83;43.00;100924.00;5027954;28;19917;-84
2021/03/18 06:19:57;;;;;;;;;;;;;;;10.58;42.34;100928.81;5039977;28;20300;-84
2021/03/18 06:22:43;;;;;;;;;;;;;;;8.82;44.51;100929.53;5058591;28;19917;-84
2021/03/18 06:25:27;;;;;;;;;;;;;;;8.16;46.76;100929.75;5062148;28;19917;-84
2021/03/18 06:28:21;;;;;;;;;;;;;;;7.46;48.36;100935.03;5046493;28;20316;-83
2021/03/18 06:31:10;;;;;;;;;;;;;;;6.94;50.27;100927.75;5064045;28;19917;-84
2021/03/18 06:33:55;;;;;;;;;;;;;;;6.93;50.62;100930.75;5028614;28;19917;-84
2021/03/18 06:36:40;;;;;;;;;;;;;;;6.58;51.58;100932.69;5046629;28;19917;-86
2021/03/18 06:39:29;;;;;;;;;;;;;;;6.42;52.11;100934.69;5049247;28;19921;-86
2021/03/18 06:42:14;;;;;;;;;;;;;;;6.44;52.30;100932.53;5063932;28;19916;-85
2021/03/18 06:45:06;;;;;;;;;;;;;;;6.81;51.60;100936.53;5065990;28;20401;-85
2021/03/18 06:47:52;;;;;;;;;;;;;;;7.20;50.28;100936.41;5067099;28;19917;-85
2021/03/18 06:50:38;;;;;;;;;;;;;;;7.18;50.96;100941.28;5066928;28;19917;-85
2021/03/18 06:53:24;;;;;;;;;;;;;;;7.55;50.03;100940.59;5063116;28;19917;-85
2021/03/18 06:56:37;;;;;;;;;;;;;;;7.95;49.03;100942.78;5065859;28;19924;-84
2021/03/18 06:59:29;;;;;;;;;;;;;;;8.24;48.60;100948.03;5040126;28;20376;-86
2021/03/18 07:02:14;;;;;;;;;;;;;;;8.68;47.24;100941.44;5063806;28;20377;-83
2021/03/18 07:04:59;;;;;;;;;;;;;;;9.13;45.68;100935.22;5073309;28;19920;-82
2021/03/18 07:07:44;;;;;;;;;;;;;;;9.36;44.57;100941.53;5045357;28;19917;-83
2021/03/18 07:10:35;;;;;;;;;;;;;;;9.75;44.35;100949.97;5042703;28;19917;-82
2021/03/18 07:13:21;;;;;;;;;;;;;;;9.57;45.10;100941.94;5039935;28;19921;-82
2021/03/18 07:16:07;;;;;;;;;;;;;;;9.67;44.55;100949.88;5043702;28;20297;-82
2021/03/18 07:18:56;;;;;;;;;;;;;;;10.11;41.38;100947.28;5042807;28;19921;-83
2021/03/18 07:21:42;;;;;;;;;;;;;;;10.33;41.05;100951.16;5044340;28;19917;-82
2021/03/18 07:24:28;;;;;;;;;;;;;;;11.13;38.96;100943.69;5037580;28;19917;-82
2021/03/18 07:27:14;;;;;;;;;;;;;;;11.55;37.99;100957.78;5043334;28;19917;-82
2021/03/18 07:29:59;;;;;;;;;;;;;;;11.31;39.96;100952.75;5041071;28;19917;-80
2021/03/18 07:32:47;;;;;;;;;;;;;;;10.55;41.95;100954.72;5039771;28;19917;-80
2021/03/18 07:35:32;;;;;;;;;;;;;;;10.68;39.45;100951.13;5043482;28;19917;-80
2021/03/18 07:38:16;;;;;;;;;;;;;;;10.64;38.24;100954.78;5040707;28;19921;-80
2021/03/18 07:41:01;;;;;;;;;;;;;;;10.45;38.98;100954.16;5054826;28;19917;-80
2021/03/18 07:43:46;;;;;;;;;;;;;;;10.81;38.19;100954.09;5059298;28;19921;-80
2021/03/18 07:46:33;;;;;;;;;;;;;;;10.66;38.84;100955.28;5060752;28;19917;-80
2021/03/18 07:49:21;;;;;;;;;;;;;;;9.90;42.05;100965.16;5058254;28;19925;-79
2021/03/18 07:52:06;;;;;;;;;;;;;;;8.66;45.38;100976.97;5060934;28;19920;-79
2021/03/18 07:54:53;;;;;;;;;;;;;;;9.73;44.57;100967.69;5056998;28;19917;-79
2021/03/18 07:57:44;;;;;;;;;;;;;;;8.97;46.14;100969.13;5060510;28;19924;-79
2021/03/18 08:00:31;;;;;;;;;;;;;;;9.42;45.68;100968.28;5060752;28;19921;-79
2021/03/18 08:03:21;;;;;;;;;;;;;;;8.73;48.00;100973.88;5057733;28;19916;-79
2021/03/18 08:06:07;;;;;;;;;;;;;;;8.82;49.09;100982.94;5055498;28;19917;-80
2021/03/18 08:08:52;;;;;;;;;;;;;;;8.61;49.65;100973.53;5054189;28;19917;-79
2021/03/18 08:11:37;;;;;;;;;;;;;;;10.02;46.80;100976.28;5059239;28;20312;-79
2021/03/18 08:14:24;;;;;;;;;;;;;;;12.18;42.54;100973.69;5054621;28;19932;-79
2021/03/18 08:17:26;;;;;;;;;;;;;;;9.71;46.79;100983.47;5061539;28;19916;-81
2021/03/18 08:20:10;;;;;;;;;;;;;;;9.60;47.91;100982.84;5062436;28;19924;-81
2021/03/18 08:22:55;;;;;;;;;;;;;;;10.01;46.77;100979.28;5058427;28;19917;-82
2021/03/18 08:25:40;;;;;;;;;;;;;;;9.54;47.46;100980.56;5061557;28;19921;-79
2021/03/18 08:28:45;;;;;;;;;;;;;;;9.75;47.26;100979.06;5056869;28;19917;-80
2021/03/18 08:31:30;;;;;;;;;;;;;;;9.65;47.39;100985.47;5055781;28;19921;-82
2021/03/18 08:34:15;;;;;;;;;;;;;;;10.59;45.48;100988.34;5056956;28;19917;-80
2021/03/18 08:36:59;;;;;;;;;;;;;;;11.05;43.66;100976.31;5044067;28;19921;-83
2021/03/18 08:39:47;;;;;;;;;;;;;;;11.43;42.27;100991.06;5057408;28;20376;-80
2021/03/18 08:42:51;;;;;;;;;;;;;;;11.55;41.58;100988.56;5060204;28;20307;-81
2021/03/18 08:45:37;;;;;;;;;;;;;;;11.12;42.66;100988.34;5058851;28;19916;-85
2021/03/18 08:48:21;;;;;;;;;;;;;;;11.36;42.41;100989.91;5057966;28;19920;-85
2021/03/18 08:51:07;;;;;;;;;;;;;;;11.47;41.87;100988.53;5061509;28;19917;-85
2021/03/18 08:53:51;;;;;;;;;;;;;;;11.18;42.22;100994.47;5064311;28;19916;-85
2021/03/18 08:56:42;;;;;;;;;;;;;;;11.01;43.19;100992.47;5060966;28;19917;-85
2021/03/18 08:59:27;;;;;;;;;;;;;;;11.44;41.97;100991.88;5065115;28;19920;-85
2021/03/18 09:02:13;;;;;;;;;;;;;;;12.58;41.14;100992.63;5063479;28;19917;-85
2021/03/18 09:04:58;;;;;;;;;;;;;;;12.66;40.87;100986.34;5062091;28;19921;-85
2021/03/18 09:07:44;;;;;;;;;;;;;;;12.97;38.88;100989.66;5065918;28;19916;-84
2021/03/18 09:10:30;;;;;;;;;;;;;;;13.33;37.93;100983.81;5063807;28;19916;-85
2021/03/18 09:13:16;;;;;;;;;;;;;;;12.52;38.02;100989.25;5061361;28;19921;-82
2021/03/18 09:16:02;;;;;;;;;;;;;;;12.14;40.24;100991.00;5065065;28;19917;-86
2021/03/18 09:18:47;;;;;;;;;;;;;;;12.11;41.07;100989.69;5067597;28;19921;-85
2021/03/18 09:21:43;;;;;;;;;;;;;;;11.49;41.57;100986.28;5067957;28;19916;-86
2021/03/18 09:24:35;;;;;;;;;;;;;;;11.52;41.67;100986.47;5060167;28;19917;-86
2021/03/18 09:27:19;;;;;;;;;;;;;;;10.94;43.08;100988.56;5063679;28;19943;-86
2021/03/18 09:30:19;;;;;;;;;;;;;;;10.99;42.75;100989.25;5066508;28;20301;-86
2021/03/18 09:33:25;;;;;;;;;;;;;;;10.87;41.36;100989.00;5067866;28;19920;-85
2021/03/18 09:36:17;;;;;;;;;;;;;;;11.05;40.08;100993.44;5044418;28;19925;-85
2021/03/18 09:39:08;;;;;;;;;;;;;;;11.23;40.04;100996.25;5063928;28;19920;-85
2021/03/18 09:41:55;;;;;;;;;;;;;;;11.14;38.65;100994.28;5061821;28;20372;-85
2021/03/18 09:44:40;;;;;;;;;;;;;;;11.33;37.17;100983.16;5065958;28;19917;-85
2021/03/18 09:47:25;;;;;;;;;;;;;;;11.74;34.44;100980.16;5063334;28;19917;-85
2021/03/18 09:50:10;;;;;;;;;;;;;;;12.14;33.59;100988.28;5061150;28;19921;-85
2021/03/18 09:53:06;;;;;;;;;;;;;;;12.00;33.83;100988.38;5064547;28;19921;-86
2021/03/18 09:55:51;;;;;;;;;;;;;;;11.92;33.85;101000.09;5064244;28;19916;-86
2021/03/18 09:58:36;;;;;;;;;;;;;;;12.02;34.81;101007.16;5061599;28;19921;-85
2021/03/18 10:01:23;;;;;;;;;;;;;;;12.84;33.82;101007.06;5063669;28;19917;-85
2021/03/18 10:04:09;;;;;;;;;;;;;;;12.94;32.65;101008.63;5060108;28;20380;-85
2021/03/18 10:06:56;;;;;;;;;;;;;;;12.74;33.29;101008.19;5046402;28;19916;-85
2021/03/18 10:09:44;;;;;;;;;;;;;;;12.85;32.70;101009.44;5065460;28;19921;-86
2021/03/18 10:12:30;;;;;;;;;;;;;;;13.00;32.16;101010.88;5061184;28;19917;-85
2021/03/18 10:15:16;;;;;;;;;;;;;;;13.09;31.80;101017.13;5060466;28;19924;-85
2021/03/18 10:18:00;;;;;;;;;;;;;;;14.09;29.95;100994.69;5064999;28;20336;-85
2021/03/18 10:20:45;;;;;;;;;;;;;;;14.24;28.70;100994.09;5063286;28;19916;-85
2021/03/18 10:23:30;;;;;;;;;;;;;;;13.95;30.03;100986.75;5061833;28;20316;-85
2021/03/18 10:26:22;;;;;;;;;;;;;;;13.51;30.38;100990.81;5060200;28;19920;-85
2021/03/18 10:29:07;;;;;;;;;;;;;;;13.39;30.49;100976.25;5063153;28;20292;-85
2021/03/18 10:32:04;;;;;;;;;;;;;;;12.92;30.14;100980.84;5061487;28;19916;-85
2021/03/18 10:34:53;;;;;;;;;;;;;;;12.72;30.45;100974.94;5064245;28;20292;-85
2021/03/18 10:37:39;;;;;;;;;;;;;;;12.90;31.74;100972.97;5063059;28;19916;-84
2021/03/18 10:40:26;;;;;;;;;;;;;;;12.65;30.99;100966.44;5051325;28;19921;-84
2021/03/18 10:43:22;;;;;;;;;;;;;;;12.54;31.05;100957.00;5080400;28;19916;-85
2021/03/18 10:46:09;;;;;;;;;;;;;;;12.59;31.27;100950.56;5062019;28;19917;-85
2021/03/18 10:48:54;;;;;;;;;;;;;;;12.57;30.73;100948.16;5060003;28;19916;-85
2021/03/18 10:51:45;;;;;;;;;;;;;;;12.72;31.46;100958.56;5068854;28;19916;-85
2021/03/18 10:54:32;;;;;;;;;;;;;;;12.82;31.13;100952.78;5054260;28;20301;-86
2021/03/18 10:57:17;;;;;;;;;;;;;;;12.71;31.34;100948.78;5045296;28;19917;-86
2021/03/18 11:00:06;;;;;;;;;;;;;;;12.80;31.38;100943.28;5044945;28;19921;-85
2021/03/18 11:03:02;;;;;;;;;;;;;;;12.91;29.92;100936.38;5052520;28;19921;-85
2021/03/18 11:05:48;;;;;;;;;;;;;;;13.33;30.88;100940.13;5081410;28;19916;-85
2021/03/18 11:08:33;;;;;;;;;;;;;;;13.66;28.79;100943.81;5062627;28;19917;-86
2021/03/18 11:11:28;;;;;;;;;;;;;;;13.79;28.10;100938.44;5053789;28;19916;-85
2021/03/18 11:14:14;;;;;;;;;;;;;;;13.71;26.25;100929.94;5052207;28;19921;-86
2021/03/18 11:17:03;;;;;;;;;;;;;;;14.11;25.46;100941.28;5057571;28;19921;-86
2021/03/18 11:19:47;;;;;;;;;;;;;;;14.14;26.23;100937.06;5053545;28;19929;-86
2021/03/18 11:22:32;;;;;;;;;;;;;;;14.08;27.24;100936.47;5056887;28;19921;-84
2021/03/18 11:25:34;;;;;;;;;;;;;;;14.19;26.86;100938.78;5085942;22;19928;-86
2021/03/18 11:28:27;;;;;;;;;;;;;;;14.24;27.69;100942.13;5073860;28;20380;-85
2021/03/18 11:31:21;;;;;;;;;;;;;;;14.11;27.96;100930.34;5068986;28;19916;-84
2021/03/18 11:34:21;;;;;;;;;;;;;;;14.38;28.18;100929.00;5061618;28;19917;-83
2021/03/18 11:37:13;;;;;;;;;;;;;;;14.39;28.00;100925.13;5061394;28;19916;-82
2021/03/18 11:40:04;;;;;;;;;;;;;;;14.39;26.80;100919.66;5059856;28;19929;-81
2021/03/18 11:42:49;;;;;;;;;;;;;;;14.62;27.35;100911.91;5060667;28;21088;-84
2021/03/18 11:45:38;;;;;;;;;;;;;;;14.71;28.63;100904.41;5044864;28;19917;-85
2021/03/18 11:48:23;;;;;;;;;;;;;;;14.88;29.91;100906.16;5084295;28;19916;-83
2021/03/18 11:51:08;;;;;;;;;;;;;;;14.93;29.23;100900.47;5061031;28;20192;-83
2021/03/18 11:53:53;;;;;;;;;;;;;;;15.06;28.89;100904.00;5056019;28;20368;-84
2021/03/18 11:56:38;;;;;;;;;;;;;;;15.05;28.57;100896.91;5077698;28;19920;-85
2021/03/18 11:59:23;;;;;;;;;;;;;;;14.94;29.39;100891.09;5074998;28;19920;-83
2021/03/18 12:02:08;;;;;;;;;;;;;;;15.03;29.99;100878.09;5068719;28;20418;-84
2021/03/18 12:04:55;;;;;;;;;;;;;;;15.30;28.46;100888.38;5057624;28;19924;-83
2021/03/18 12:07:40;;;;;;;;;;;;;;;15.21;29.68;100879.47;5055999;28;19917;-82
2021/03/18 12:10:25;;;;;;;;;;;;;;;15.37;29.97;100894.09;5053651;28;19916;-82
2021/03/18 12:13:10;;;;;;;;;;;;;;;15.52;28.96;100889.09;5042543;28;19921;-83
2021/03/18 12:15:55;;;;;;;;;;;;;;;15.47;28.97;100886.56;5055442;28;19924;-84
2021/03/18 12:18:39;;;;;;;;;;;;;;;15.59;29.45;100884.66;5046907;28;19920;-84
2021/03/18 12:21:24;;;;;;;;;;;;;;;15.69;30.85;100884.16;5088691;28;19966;-85
2021/03/18 12:24:11;;;;;;;;;;;;;;;15.85;29.44;100881.47;5078105;28;19920;-83
2021/03/18 12:26:56;;;;;;;;;;;;;;;15.93;29.75;100882.50;5087947;28;19916;-80
2021/03/18 12:29:41;;;;;;;;;;;;;;;15.90;29.99;100877.72;5098831;28;20295;-85
2021/03/18 12:32:28;;;;;;;;;;;;;;;16.03;30.25;100868.31;5093815;28;19916;-82
2021/03/18 12:35:13;;;;;;;;;;;;;;;15.74;30.59;100863.94;5094211;28;19916;-83
2021/03/18 12:37:59;;;;;;;;;;;;;;;15.88;30.63;100852.59;5078055;28;20284;-83
2021/03/18 12:40:44;;;;;;;;;;;;;;;15.87;30.60;100845.50;5096162;28;19920;-80
2021/03/18 12:43:32;;;;;;;;;;;;;;;16.01;30.85;100851.38;5094096;28;19916;-85
2021/03/18 12:46:19;;;;;;;;;;;;;;;16.06;30.43;100849.19;5093631;28;19916;-85
2021/03/18 12:49:06;;;;;;;;;;;;;;;15.97;32.17;100848.56;5096497;28;19916;-87
2021/03/18 12:51:56;;;;;;;;;;;;;;;16.22;33.12;100841.81;5085682;28;19936;-90
2021/03/18 12:54:54;;;;;;;;;;;;;;;;;;;;;
2021/03/18 12:57:42;;;;;;;;;;;;;;;16.21;33.57;100847.66;5072594;28;19916;-91
2021/03/18 13:00:28;;;;;;;;;;;;;;;16.56;32.50;100848.63;5073742;28;19920;-88
2021/03/18 13:03:16;;;;;;;;;;;;;;;16.34;31.58;100842.91;5075752;28;20400;-86
2021/03/18 13:06:00;;;;;;;;;;;;;;;16.36;31.74;100852.38;5039836;28;19917;-87
2021/03/18 13:08:45;;;;;;;;;;;;;;;16.39;31.22;100837.97;5060126;28;19917;-87
2021/03/18 13:11:29;;;;;;;;;;;;;;;16.49;30.92;100840.22;5060093;28;19921;-87
2021/03/18 13:14:14;;;;;;;;;;;;;;;16.39;30.36;100846.22;5059640;28;19917;-87
2021/03/18 13:16:59;;;;;;;;;;;;;;;16.43;31.04;100835.31;5060702;28;20311;-87
2021/03/18 13:19:43;;;;;;;;;;;;;;;16.39;29.66;100834.44;5060335;28;19921;-87
2021/03/18 13:22:28;;;;;;;;;;;;;;;16.36;29.43;100824.13;5060478;28;19917;-87
2021/03/18 13:25:14;;;;;;;;;;;;;;;16.63;29.16;100824.13;5053138;28;19917;-88
2021/03/18 13:27:58;;;;;;;;;;;;;;;16.60;29.29;100821.31;5053502;28;19917;-88
2021/03/18 13:30:43;;;;;;;;;;;;;;;16.61;27.95;100818.19;5060070;28;19917;-86
2021/03/18 13:33:28;;;;;;;;;;;;;;;16.79;28.21;100815.91;5054688;28;19916;-87
2021/03/18 13:36:14;;;;;;;;;;;;;;;17.02;27.01;100803.13;5054160;28;19921;-87
2021/03/18 13:38:59;;;;;;;;;;;;;;;16.97;25.99;100811.63;5061499;28;19925;-87
2021/03/18 13:41:45;;;;;;;;;;;;;;;17.05;26.16;100810.66;5063774;28;19917;-88
2021/03/18 13:44:30;;;;;;;;;;;;;;;16.50;25.84;100810.81;5047258;28;19917;-87
2021/03/18 13:47:15;;;;;;;;;;;;;;;16.83;26.18;100805.78;5068174;28;20372;-88
2021/03/18 13:49:59;;;;;;;;;;;;;;;16.74;24.99;100802.44;5064395;28;19920;-88
2021/03/18 13:52:45;;;;;;;;;;;;;;;16.75;24.90;100793.06;5069547;28;19917;-88
2021/03/18 13:55:29;;;;;;;;;;;;;;;16.97;25.48;100783.34;5064703;28;19929;-88
2021/03/18 13:58:15;;;;;;;;;;;;;;;16.91;23.76;100779.31;5068748;28;20372;-88
2021/03/18 14:01:01;;;;;;;;;;;;;;;16.97;24.02;100773.16;5066915;28;19921;-86
2021/03/18 14:03:45;;;;;;;;;;;;;;;16.93;23.00;100775.03;5063042;28;20292;-88
2021/03/18 14:06:30;;;;;;;;;;;;;;;16.46;22.94;100766.78;5057740;28;19921;-87
2021/03/18 14:09:14;;;;;;;;;;;;;;;16.69;23.49;100772.50;5050500;28;19917;-87
2021/03/18 14:11:59;;;;;;;;;;;;;;;16.76;23.01;100767.16;5048930;28;19917;-88
2021/03/18 14:14:44;;;;;;;;;;;;;;;16.88;22.42;100758.03;5062389;28;19916;-88
2021/03/18 14:17:28;;;;;;;;;;;;;;;16.84;22.01;100757.94;5066880;28;19916;-89
2021/03/18 14:20:17;;;;;;;;;;;;;;;16.74;23.09;100758.50;5064132;28;19921;-87
2021/03/18 14:23:02;;;;;;;;;;;;;;;16.91;24.00;100758.13;5066571;28;20397;-88